sensor_id;sensor_type;location;lat;lon;timestamp;temperature;humidity
3086;DHT22;52812;48.960;9.108;2023-09-19T00:01:19;16.40;99.90
3086;DHT22;52812;48.960;9.108;2023-09-19T00:03:46;16.40;99.90
3086;DHT22;52812;48.960;9.108;2023-09-19T00:06:11;16.40;99.90
3086;DHT22;52812;48.960;9.108;2023-09-19T00:08:41;16.40;99.90
3086;DHT22;52812;48.960;9.108;2023-09-19T00:11:09;16.40;99.90
3086;DHT22;52812;48.960;9.108;2023-09-19T00:13:36;16.40;99.90
3086;DHT22;52812;48.960;9.108;2023-09-19T00:16:09;16.40;99.90
3086;DHT22;52812;48.960;9.108;2023-09-19T00:18:36;16.40;99.90
3086;DHT22;52812;48.960;9.108;2023-09-19T00:21:02;16.30;99.90
3086;DHT22;52812;48.960;9.108;2023-09-19T00:23:30;16.30;99.90
3086;DHT22;52812;48.960;9.108;2023-09-19T00:26:00;16.20;99.90
3086;DHT22;52812;48.960;9.108;2023-09-19T00:28:26;16.20;99.90
3086;DHT22;52812;48.960;9.108;2023-09-19T00:30:52;16.10;99.90
3086;DHT22;52812;48.960;9.108;2023-09-19T00:33:21;16.10;99.90
3086;DHT22;52812;48.960;9.108;2023-09-19T00:35:51;16.00;99.90
3086;DHT22;52812;48.960;9.108;2023-09-19T00:38:17;16.00;99.90
3086;DHT22;52812;48.960;9.108;2023-09-19T00:40:47;16.00;99.90
3086;DHT22;52812;48.960;9.108;2023-09-19T00:43:13;15.90;99.90
3086;DHT22;52812;48.960;9.108;2023-09-19T00:45:43;15.90;99.90
3086;DHT22;52812;48.960;9.108;2023-09-19T00:48:09;16.00;99.90
3086;DHT22;52812;48.960;9.108;2023-09-19T00:50:35;16.00;99.90
3086;DHT22;52812;48.960;9.108;2023-09-19T00:53:02;16.00;99.90
3086;DHT22;52812;48.960;9.108;2023-09-19T00:55:36;16.10;99.90
3086;DHT22;52812;48.960;9.108;2023-09-19T00:58:03;16.20;99.90
3086;DHT22;52812;48.960;9.108;2023-09-19T01:00:32;16.20;99.90
3086;DHT22;52812;48.960;9.108;2023-09-19T01:03:00;16.20;99.90
3086;DHT22;52812;48.960;9.108;2023-09-19T01:05:29;16.20;99.90
3086;DHT22;52812;48.960;9.108;2023-09-19T01:07:57;16.20;99.90
3086;DHT22;52812;48.960;9.108;2023-09-19T01:10:23;16.20;99.90
3086;DHT22;52812;48.960;9.108;2023-09-19T01:13:08;16.20;99.90
3086;DHT22;52812;48.960;9.108;2023-09-19T01:15:38;16.20;99.90
3086;DHT22;52812;48.960;9.108;2023-09-19T01:28:39;16.00;99.90
3086;DHT22;52812;48.960;9.108;2023-09-19T01:31:11;16.10;99.90
3086;DHT22;52812;48.960;9.108;2023-09-19T01:34:00;16.10;99.90
3086;DHT22;52812;48.960;9.108;2023-09-19T01:36:32;16.10;99.90
3086;DHT22;52812;48.960;9.108;2023-09-19T01:39:04;16.20;99.90
3086;DHT22;52812;48.960;9.108;2023-09-19T01:44:16;16.20;99.90
3086;DHT22;52812;48.960;9.108;2023-09-19T01:46:44;16.20;99.90
3086;DHT22;52812;48.960;9.108;2023-09-19T01:49:22;16.20;99.90
3086;DHT22;52812;48.960;9.108;2023-09-19T01:54:24;16.10;99.90
3086;DHT22;52812;48.960;9.108;2023-09-19T01:57:07;16.00;99.90
3086;DHT22;52812;48.960;9.108;2023-09-19T01:59:45;16.00;99.90
3086;DHT22;52812;48.960;9.108;2023-09-19T02:02:15;15.90;99.90
3086;DHT22;52812;48.960;9.108;2023-09-19T02:04:41;15.90;99.90
3086;DHT22;52812;48.960;9.108;2023-09-19T02:07:06;15.80;99.90
3086;DHT22;52812;48.960;9.108;2023-09-19T02:09:33;15.80;99.90
3086;DHT22;52812;48.960;9.108;2023-09-19T02:12:01;15.70;99.90
3086;DHT22;52812;48.960;9.108;2023-09-19T02:14:30;15.70;99.90
3086;DHT22;52812;48.960;9.108;2023-09-19T02:16:56;15.70;99.90
3086;DHT22;52812;48.960;9.108;2023-09-19T02:19:22;15.70;99.90
3086;DHT22;52812;48.960;9.108;2023-09-19T02:21:47;15.70;99.90
3086;DHT22;52812;48.960;9.108;2023-09-19T02:24:14;15.70;99.90
3086;DHT22;52812;48.960;9.108;2023-09-19T02:26:41;15.70;99.90
3086;DHT22;52812;48.960;9.108;2023-09-19T02:29:06;15.70;99.90
3086;DHT22;52812;48.960;9.108;2023-09-19T02:31:32;15.70;99.90
3086;DHT22;52812;48.960;9.108;2023-09-19T02:33:57;15.70;99.90
3086;DHT22;52812;48.960;9.108;2023-09-19T02:36:24;15.70;99.90
3086;DHT22;52812;48.960;9.108;2023-09-19T02:38:50;15.60;99.90
3086;DHT22;52812;48.960;9.108;2023-09-19T02:41:15;15.60;99.90
3086;DHT22;52812;48.960;9.108;2023-09-19T02:43:41;15.60;99.90
3086;DHT22;52812;48.960;9.108;2023-09-19T02:46:08;15.50;99.90
3086;DHT22;52812;48.960;9.108;2023-09-19T02:48:34;15.60;99.90
3086;DHT22;52812;48.960;9.108;2023-09-19T02:51:01;15.60;99.90
3086;DHT22;52812;48.960;9.108;2023-09-19T02:53:30;15.60;99.90
3086;DHT22;52812;48.960;9.108;2023-09-19T02:55:58;15.60;99.90
3086;DHT22;52812;48.960;9.108;2023-09-19T02:58:24;15.70;99.90
3086;DHT22;52812;48.960;9.108;2023-09-19T03:00:50;15.70;99.90
3086;DHT22;52812;48.960;9.108;2023-09-19T03:03:17;15.80;99.90
3086;DHT22;52812;48.960;9.108;2023-09-19T03:05:43;15.80;99.90
3086;DHT22;52812;48.960;9.108;2023-09-19T03:08:13;15.80;99.90
3086;DHT22;52812;48.960;9.108;2023-09-19T03:10:40;15.80;99.90
3086;DHT22;52812;48.960;9.108;2023-09-19T03:13:06;15.80;99.90
3086;DHT22;52812;48.960;9.108;2023-09-19T03:15:35;15.80;99.90
3086;DHT22;52812;48.960;9.108;2023-09-19T03:18:04;15.80;99.90
3086;DHT22;52812;48.960;9.108;2023-09-19T03:20:30;15.80;99.90
3086;DHT22;52812;48.960;9.108;2023-09-19T03:22:55;15.80;99.90
3086;DHT22;52812;48.960;9.108;2023-09-19T03:25:22;15.80;99.90
3086;DHT22;52812;48.960;9.108;2023-09-19T03:27:48;15.80;99.90
3086;DHT22;52812;48.960;9.108;2023-09-19T03:30:14;15.80;99.90
3086;DHT22;52812;48.960;9.108;2023-09-19T03:32:47;15.80;99.90
3086;DHT22;52812;48.960;9.108;2023-09-19T03:35:16;15.80;99.90
3086;DHT22;52812;48.960;9.108;2023-09-19T03:37:42;15.70;99.90
3086;DHT22;52812;48.960;9.108;2023-09-19T03:40:09;15.80;99.90
3086;DHT22;52812;48.960;9.108;2023-09-19T03:42:39;15.80;99.90
3086;DHT22;52812;48.960;9.108;2023-09-19T03:45:06;15.80;99.90
3086;DHT22;52812;48.960;9.108;2023-09-19T03:47:32;15.80;99.90
3086;DHT22;52812;48.960;9.108;2023-09-19T03:49:58;15.80;99.90
3086;DHT22;52812;48.960;9.108;2023-09-19T03:52:24;15.80;99.90
3086;DHT22;52812;48.960;9.108;2023-09-19T03:54:50;15.80;99.90
3086;DHT22;52812;48.960;9.108;2023-09-19T03:57:16;15.80;99.90
3086;DHT22;52812;48.960;9.108;2023-09-19T03:59:46;15.90;99.90
3086;DHT22;52812;48.960;9.108;2023-09-19T04:02:12;15.90;99.90
3086;DHT22;52812;48.960;9.108;2023-09-19T04:04:51;15.90;99.90
3086;DHT22;52812;48.960;9.108;2023-09-19T04:07:17;15.80;99.90
3086;DHT22;52812;48.960;9.108;2023-09-19T04:09:44;15.90;99.90
3086;DHT22;52812;48.960;9.108;2023-09-19T04:12:11;15.90;99.90
3086;DHT22;52812;48.960;9.108;2023-09-19T04:14:37;15.80;99.90
3086;DHT22;52812;48.960;9.108;2023-09-19T04:17:04;15.80;99.90
3086;DHT22;52812;48.960;9.108;2023-09-19T04:19:30;15.80;99.90
3086;DHT22;52812;48.960;9.108;2023-09-19T04:21:56;15.80;99.90
3086;DHT22;52812;48.960;9.108;2023-09-19T04:24:22;15.80;99.90
3086;DHT22;52812;48.960;9.108;2023-09-19T04:26:47;15.80;99.90
3086;DHT22;52812;48.960;9.108;2023-09-19T04:29:13;15.80;99.90
3086;DHT22;52812;48.960;9.108;2023-09-19T04:31:39;15.80;99.90
3086;DHT22;52812;48.960;9.108;2023-09-19T04:34:08;15.70;99.90
3086;DHT22;52812;48.960;9.108;2023-09-19T04:36:34;15.70;99.90
3086;DHT22;52812;48.960;9.108;2023-09-19T04:39:02;15.70;99.90
3086;DHT22;52812;48.960;9.108;2023-09-19T04:41:30;15.70;99.90
3086;DHT22;52812;48.960;9.108;2023-09-19T04:43:56;15.70;99.90
3086;DHT22;52812;48.960;9.108;2023-09-19T04:46:22;15.70;99.90
3086;DHT22;52812;48.960;9.108;2023-09-19T04:48:47;15.70;99.90
3086;DHT22;52812;48.960;9.108;2023-09-19T04:51:13;15.70;99.90
3086;DHT22;52812;48.960;9.108;2023-09-19T04:53:40;15.70;99.90
3086;DHT22;52812;48.960;9.108;2023-09-19T04:56:06;15.70;99.90
3086;DHT22;52812;48.960;9.108;2023-09-19T04:58:33;15.70;99.90
3086;DHT22;52812;48.960;9.108;2023-09-19T05:00:59;15.70;99.90
3086;DHT22;52812;48.960;9.108;2023-09-19T05:03:25;15.70;99.90
3086;DHT22;52812;48.960;9.108;2023-09-19T05:05:50;15.70;99.90
3086;DHT22;52812;48.960;9.108;2023-09-19T05:08:16;15.70;99.90
3086;DHT22;52812;48.960;9.108;2023-09-19T05:10:42;15.70;99.90
3086;DHT22;52812;48.960;9.108;2023-09-19T05:13:07;15.80;99.90
3086;DHT22;52812;48.960;9.108;2023-09-19T05:15:33;15.80;99.90
3086;DHT22;52812;48.960;9.108;2023-09-19T05:18:01;15.70;99.90
3086;DHT22;52812;48.960;9.108;2023-09-19T05:20:26;15.70;99.90
3086;DHT22;52812;48.960;9.108;2023-09-19T05:23:06;15.80;99.90
3086;DHT22;52812;48.960;9.108;2023-09-19T05:25:38;15.80;99.90
3086;DHT22;52812;48.960;9.108;2023-09-19T05:28:09;15.80;99.90
3086;DHT22;52812;48.960;9.108;2023-09-19T05:30:37;15.80;99.90
3086;DHT22;52812;48.960;9.108;2023-09-19T05:33:06;15.80;99.90
3086;DHT22;52812;48.960;9.108;2023-09-19T05:35:33;15.80;99.90
3086;DHT22;52812;48.960;9.108;2023-09-19T05:37:59;15.90;99.90
3086;DHT22;52812;48.960;9.108;2023-09-19T05:40:25;15.90;99.90
3086;DHT22;52812;48.960;9.108;2023-09-19T05:42:51;15.90;99.90
3086;DHT22;52812;48.960;9.108;2023-09-19T05:45:17;15.90;99.90
3086;DHT22;52812;48.960;9.108;2023-09-19T05:47:48;15.90;99.90
3086;DHT22;52812;48.960;9.108;2023-09-19T05:50:14;15.90;99.90
3086;DHT22;52812;48.960;9.108;2023-09-19T05:52:42;15.90;99.90
3086;DHT22;52812;48.960;9.108;2023-09-19T05:55:09;16.00;99.90
3086;DHT22;52812;48.960;9.108;2023-09-19T05:57:36;15.90;99.90
3086;DHT22;52812;48.960;9.108;2023-09-19T06:00:06;16.00;99.90
3086;DHT22;52812;48.960;9.108;2023-09-19T06:02:36;16.00;99.90
3086;DHT22;52812;48.960;9.108;2023-09-19T06:05:04;16.00;99.90
3086;DHT22;52812;48.960;9.108;2023-09-19T06:07:32;16.00;99.90
3086;DHT22;52812;48.960;9.108;2023-09-19T06:10:03;16.00;99.90
3086;DHT22;52812;48.960;9.108;2023-09-19T06:12:31;16.00;99.90
3086;DHT22;52812;48.960;9.108;2023-09-19T06:14:58;15.90;99.90
3086;DHT22;52812;48.960;9.108;2023-09-19T06:17:25;16.00;99.90
3086;DHT22;52812;48.960;9.108;2023-09-19T06:19:52;16.00;99.90
3086;DHT22;52812;48.960;9.108;2023-09-19T06:22:18;16.10;99.90
3086;DHT22;52812;48.960;9.108;2023-09-19T06:24:44;16.10;99.90
3086;DHT22;52812;48.960;9.108;2023-09-19T06:27:10;16.20;99.90
3086;DHT22;52812;48.960;9.108;2023-09-19T06:29:35;16.20;99.90
3086;DHT22;52812;48.960;9.108;2023-09-19T06:32:09;16.30;99.90
3086;DHT22;52812;48.960;9.108;2023-09-19T06:34:36;16.40;99.90
3086;DHT22;52812;48.960;9.108;2023-09-19T06:37:01;16.50;99.90
3086;DHT22;52812;48.960;9.108;2023-09-19T06:39:28;16.60;99.90
3086;DHT22;52812;48.960;9.108;2023-09-19T06:41:54;16.60;99.90
3086;DHT22;52812;48.960;9.108;2023-09-19T06:44:20;16.80;99.90
3086;DHT22;52812;48.960;9.108;2023-09-19T06:46:47;17.10;99.90
3086;DHT22;52812;48.960;9.108;2023-09-19T06:49:19;17.40;99.90
3086;DHT22;52812;48.960;9.108;2023-09-19T06:51:45;17.60;99.90
3086;DHT22;52812;48.960;9.108;2023-09-19T06:54:10;17.80;99.90
3086;DHT22;52812;48.960;9.108;2023-09-19T06:56:36;18.00;99.90
3086;DHT22;52812;48.960;9.108;2023-09-19T06:59:02;18.30;99.90
3086;DHT22;52812;48.960;9.108;2023-09-19T07:01:31;18.50;99.90
3086;DHT22;52812;48.960;9.108;2023-09-19T07:03:57;18.60;99.90
3086;DHT22;52812;48.960;9.108;2023-09-19T07:06:23;18.60;99.90
3086;DHT22;52812;48.960;9.108;2023-09-19T07:08:49;18.70;99.90
3086;DHT22;52812;48.960;9.108;2023-09-19T07:11:15;18.80;99.90
3086;DHT22;52812;48.960;9.108;2023-09-19T07:13:41;18.60;99.90
3086;DHT22;52812;48.960;9.108;2023-09-19T07:16:07;18.30;99.90
3086;DHT22;52812;48.960;9.108;2023-09-19T07:18:35;18.10;99.90
3086;DHT22;52812;48.960;9.108;2023-09-19T07:21:02;17.90;99.90
3086;DHT22;52812;48.960;9.108;2023-09-19T07:23:30;17.80;99.90
3086;DHT22;52812;48.960;9.108;2023-09-19T07:26:00;17.80;99.90
3086;DHT22;52812;48.960;9.108;2023-09-19T07:28:26;17.70;99.90
3086;DHT22;52812;48.960;9.108;2023-09-19T07:30:53;17.90;99.90
3086;DHT22;52812;48.960;9.108;2023-09-19T07:33:19;18.00;99.90
3086;DHT22;52812;48.960;9.108;2023-09-19T07:35:46;18.20;99.90
3086;DHT22;52812;48.960;9.108;2023-09-19T07:38:12;18.30;99.90
3086;DHT22;52812;48.960;9.108;2023-09-19T07:40:38;18.40;99.90
3086;DHT22;52812;48.960;9.108;2023-09-19T07:43:03;18.60;99.90
3086;DHT22;52812;48.960;9.108;2023-09-19T07:45:30;18.70;99.90
3086;DHT22;52812;48.960;9.108;2023-09-19T07:47:57;18.80;99.90
3086;DHT22;52812;48.960;9.108;2023-09-19T07:50:22;18.60;99.90
3086;DHT22;52812;48.960;9.108;2023-09-19T07:52:49;18.50;99.90
3086;DHT22;52812;48.960;9.108;2023-09-19T07:55:19;18.40;99.90
3086;DHT22;52812;48.960;9.108;2023-09-19T07:57:46;18.50;99.90
3086;DHT22;52812;48.960;9.108;2023-09-19T08:00:12;18.40;99.90
3086;DHT22;52812;48.960;9.108;2023-09-19T08:02:39;18.40;99.90
3086;DHT22;52812;48.960;9.108;2023-09-19T08:05:07;18.50;99.90
3086;DHT22;52812;48.960;9.108;2023-09-19T08:07:38;18.50;99.90
3086;DHT22;52812;48.960;9.108;2023-09-19T08:10:04;18.50;99.90
3086;DHT22;52812;48.960;9.108;2023-09-19T08:12:33;18.60;99.90
3086;DHT22;52812;48.960;9.108;2023-09-19T08:15:02;18.80;99.90
3086;DHT22;52812;48.960;9.108;2023-09-19T08:17:28;18.90;99.90
3086;DHT22;52812;48.960;9.108;2023-09-19T08:19:53;18.90;99.90
3086;DHT22;52812;48.960;9.108;2023-09-19T08:22:22;18.90;99.90
3086;DHT22;52812;48.960;9.108;2023-09-19T08:24:49;18.80;99.90
3086;DHT22;52812;48.960;9.108;2023-09-19T08:27:15;18.80;99.90
3086;DHT22;52812;48.960;9.108;2023-09-19T08:29:43;19.00;99.90
3086;DHT22;52812;48.960;9.108;2023-09-19T08:32:10;19.00;99.90
3086;DHT22;52812;48.960;9.108;2023-09-19T08:34:35;19.20;99.90
3086;DHT22;52812;48.960;9.108;2023-09-19T08:37:04;19.40;99.90
3086;DHT22;52812;48.960;9.108;2023-09-19T08:39:30;19.50;99.90
3086;DHT22;52812;48.960;9.108;2023-09-19T08:42:01;19.60;99.90
3086;DHT22;52812;48.960;9.108;2023-09-19T08:44:28;19.70;99.90
3086;DHT22;52812;48.960;9.108;2023-09-19T08:47:17;19.90;99.90
3086;DHT22;52812;48.960;9.108;2023-09-19T08:50:37;19.90;99.90
3086;DHT22;52812;48.960;9.108;2023-09-19T08:52:43;20.10;99.90
3086;DHT22;52812;48.960;9.108;2023-09-19T08:55:13;20.30;99.90
3086;DHT22;52812;48.960;9.108;2023-09-19T08:57:46;20.50;99.90
3086;DHT22;52812;48.960;9.108;2023-09-19T09:00:15;20.70;99.90
3086;DHT22;52812;48.960;9.108;2023-09-19T09:02:43;20.60;99.90
3086;DHT22;52812;48.960;9.108;2023-09-19T09:05:10;20.70;99.90
3086;DHT22;52812;48.960;9.108;2023-09-19T09:07:37;20.70;99.90
3086;DHT22;52812;48.960;9.108;2023-09-19T09:10:04;20.70;99.90
3086;DHT22;52812;48.960;9.108;2023-09-19T09:12:30;20.20;99.90
3086;DHT22;52812;48.960;9.108;2023-09-19T09:14:56;19.90;99.90
3086;DHT22;52812;48.960;9.108;2023-09-19T09:17:23;19.70;99.90
3086;DHT22;52812;48.960;9.108;2023-09-19T09:19:52;19.50;99.90
3086;DHT22;52812;48.960;9.108;2023-09-19T09:22:18;19.40;99.90
3086;DHT22;52812;48.960;9.108;2023-09-19T09:24:59;19.40;99.90
3086;DHT22;52812;48.960;9.108;2023-09-19T09:27:30;19.20;99.90
3086;DHT22;52812;48.960;9.108;2023-09-19T09:29:56;19.10;99.90
3086;DHT22;52812;48.960;9.108;2023-09-19T09:34:53;18.90;99.90
3086;DHT22;52812;48.960;9.108;2023-09-19T09:37:19;18.80;99.90
3086;DHT22;52812;48.960;9.108;2023-09-19T09:39:53;18.80;99.90
3086;DHT22;52812;48.960;9.108;2023-09-19T09:42:34;19.00;99.90
3086;DHT22;52812;48.960;9.108;2023-09-19T09:45:23;19.30;99.90
3086;DHT22;52812;48.960;9.108;2023-09-19T09:48:03;19.50;99.90
3086;DHT22;52812;48.960;9.108;2023-09-19T09:50:36;19.50;99.90
3086;DHT22;52812;48.960;9.108;2023-09-19T09:53:25;19.50;99.90
3086;DHT22;52812;48.960;9.108;2023-09-19T09:56:09;19.70;99.90
3086;DHT22;52812;48.960;9.108;2023-09-19T09:58:35;20.00;99.90
3086;DHT22;52812;48.960;9.108;2023-09-19T10:01:03;20.00;99.90
3086;DHT22;52812;48.960;9.108;2023-09-19T10:03:39;19.90;99.90
3086;DHT22;52812;48.960;9.108;2023-09-19T10:06:10;20.00;99.90
3086;DHT22;52812;48.960;9.108;2023-09-19T10:11:46;19.90;99.90
3086;DHT22;52812;48.960;9.108;2023-09-19T10:14:15;19.90;99.90
3086;DHT22;52812;48.960;9.108;2023-09-19T10:16:48;19.90;99.90
3086;DHT22;52812;48.960;9.108;2023-09-19T10:19:37;19.70;99.90
3086;DHT22;52812;48.960;9.108;2023-09-19T10:22:02;19.70;99.90
3086;DHT22;52812;48.960;9.108;2023-09-19T10:24:28;19.80;99.90
3086;DHT22;52812;48.960;9.108;2023-09-19T10:26:57;20.30;99.90
3086;DHT22;52812;48.960;9.108;2023-09-19T10:29:24;20.60;99.90
3086;DHT22;52812;48.960;9.108;2023-09-19T10:31:55;20.80;99.90
3086;DHT22;52812;48.960;9.108;2023-09-19T10:34:25;21.10;99.90
3086;DHT22;52812;48.960;9.108;2023-09-19T10:37:26;21.20;99.90
3086;DHT22;52812;48.960;9.108;2023-09-19T10:39:53;21.40;99.90
3086;DHT22;52812;48.960;9.108;2023-09-19T10:42:23;21.60;99.90
3086;DHT22;52812;48.960;9.108;2023-09-19T10:44:54;21.30;99.90
3086;DHT22;52812;48.960;9.108;2023-09-19T10:47:20;21.10;99.90
3086;DHT22;52812;48.960;9.108;2023-09-19T10:49:49;20.70;99.90
3086;DHT22;52812;48.960;9.108;2023-09-19T10:52:19;20.40;99.90
3086;DHT22;52812;48.960;9.108;2023-09-19T10:54:49;20.50;99.90
3086;DHT22;52812;48.960;9.108;2023-09-19T10:57:26;20.70;99.90
3086;DHT22;52812;48.960;9.108;2023-09-19T11:00:04;21.00;99.90
3086;DHT22;52812;48.960;9.108;2023-09-19T11:05:40;21.60;99.90
3086;DHT22;52812;48.960;9.108;2023-09-19T11:08:10;21.80;99.90
3086;DHT22;52812;48.960;9.108;2023-09-19T11:10:51;21.90;99.90
3086;DHT22;52812;48.960;9.108;2023-09-19T11:13:27;22.20;99.90
3086;DHT22;52812;48.960;9.108;2023-09-19T11:27:12;21.00;99.90
3086;DHT22;52812;48.960;9.108;2023-09-19T11:29:39;21.10;99.90
3086;DHT22;52812;48.960;9.108;2023-09-19T11:32:05;21.20;99.90
3086;DHT22;52812;48.960;9.108;2023-09-19T11:40:10;21.30;99.90
3086;DHT22;52812;48.960;9.108;2023-09-19T11:42:48;21.20;99.90
3086;DHT22;52812;48.960;9.108;2023-09-19T11:48:10;21.80;99.90
3086;DHT22;52812;48.960;9.108;2023-09-19T11:50:39;22.00;99.90
3086;DHT22;52812;48.960;9.108;2023-09-19T11:53:14;22.10;99.90
3086;DHT22;52812;48.960;9.108;2023-09-19T11:55:41;21.80;99.90
3086;DHT22;52812;48.960;9.108;2023-09-19T11:58:09;21.70;99.90
3086;DHT22;52812;48.960;9.108;2023-09-19T12:00:35;21.60;99.90
3086;DHT22;52812;48.960;9.108;2023-09-19T12:03:08;21.60;99.90
3086;DHT22;52812;48.960;9.108;2023-09-19T12:05:39;21.80;99.90
3086;DHT22;52812;48.960;9.108;2023-09-19T12:08:05;21.80;99.90
3086;DHT22;52812;48.960;9.108;2023-09-19T12:10:50;21.90;99.90
3086;DHT22;52812;48.960;9.108;2023-09-19T12:13:20;22.30;99.90
3086;DHT22;52812;48.960;9.108;2023-09-19T12:15:46;22.40;99.90
3086;DHT22;52812;48.960;9.108;2023-09-19T12:18:30;22.40;99.90
3086;DHT22;52812;48.960;9.108;2023-09-19T12:20:56;22.40;99.90
3086;DHT22;52812;48.960;9.108;2023-09-19T12:23:23;22.40;99.90
3086;DHT22;52812;48.960;9.108;2023-09-19T12:25:51;22.50;99.90
3086;DHT22;52812;48.960;9.108;2023-09-19T12:28:19;22.50;99.90
3086;DHT22;52812;48.960;9.108;2023-09-19T12:30:47;22.60;99.90
3086;DHT22;52812;48.960;9.108;2023-09-19T12:33:18;22.40;99.90
3086;DHT22;52812;48.960;9.108;2023-09-19T12:35:47;22.30;99.90
3086;DHT22;52812;48.960;9.108;2023-09-19T12:38:26;22.40;99.90
3086;DHT22;52812;48.960;9.108;2023-09-19T12:40:59;22.20;99.90
3086;DHT22;52812;48.960;9.108;2023-09-19T12:43:26;22.20;99.90
3086;DHT22;52812;48.960;9.108;2023-09-19T12:45:52;21.90;99.90
3086;DHT22;52812;48.960;9.108;2023-09-19T12:48:25;21.70;99.90
3086;DHT22;52812;48.960;9.108;2023-09-19T12:53:39;21.80;99.90
3086;DHT22;52812;48.960;9.108;2023-09-19T12:56:12;21.80;99.90
3086;DHT22;52812;48.960;9.108;2023-09-19T12:58:56;21.80;99.90
3086;DHT22;52812;48.960;9.108;2023-09-19T13:01:25;21.70;99.90
3086;DHT22;52812;48.960;9.108;2023-09-19T13:06:40;21.60;99.90
3086;DHT22;52812;48.960;9.108;2023-09-19T13:09:12;21.50;99.90
3086;DHT22;52812;48.960;9.108;2023-09-19T13:11:40;21.40;99.90
3086;DHT22;52812;48.960;9.108;2023-09-19T13:14:25;21.50;99.90
3086;DHT22;52812;48.960;9.108;2023-09-19T13:17:05;21.60;99.90
3086;DHT22;52812;48.960;9.108;2023-09-19T13:19:53;21.70;99.90
3086;DHT22;52812;48.960;9.108;2023-09-19T13:22:43;21.70;99.90
3086;DHT22;52812;48.960;9.108;2023-09-19T13:25:16;21.70;99.90
3086;DHT22;52812;48.960;9.108;2023-09-19T13:27:48;21.70;99.90
3086;DHT22;52812;48.960;9.108;2023-09-19T13:30:17;21.80;99.90
3086;DHT22;52812;48.960;9.108;2023-09-19T13:32:43;21.80;99.90
3086;DHT22;52812;48.960;9.108;2023-09-19T13:35:09;21.80;99.90
3086;DHT22;52812;48.960;9.108;2023-09-19T13:37:35;21.80;99.90
3086;DHT22;52812;48.960;9.108;2023-09-19T13:40:08;21.80;99.90
3086;DHT22;52812;48.960;9.108;2023-09-19T13:42:34;21.80;99.90
3086;DHT22;52812;48.960;9.108;2023-09-19T13:45:05;21.90;99.90
3086;DHT22;52812;48.960;9.108;2023-09-19T13:47:31;21.80;99.90
3086;DHT22;52812;48.960;9.108;2023-09-19T13:50:01;21.70;99.90
3086;DHT22;52812;48.960;9.108;2023-09-19T13:52:29;21.80;99.90
3086;DHT22;52812;48.960;9.108;2023-09-19T13:54:56;21.90;99.90
3086;DHT22;52812;48.960;9.108;2023-09-19T13:57:23;21.90;99.90
3086;DHT22;52812;48.960;9.108;2023-09-19T13:59:49;21.90;99.90
3086;DHT22;52812;48.960;9.108;2023-09-19T14:02:14;21.90;99.90
3086;DHT22;52812;48.960;9.108;2023-09-19T14:04:43;21.80;99.90
3086;DHT22;52812;48.960;9.108;2023-09-19T14:07:09;21.70;99.90
3086;DHT22;52812;48.960;9.108;2023-09-19T14:09:36;21.80;99.90
3086;DHT22;52812;48.960;9.108;2023-09-19T14:12:02;21.80;99.90
3086;DHT22;52812;48.960;9.108;2023-09-19T14:14:28;21.80;99.90
3086;DHT22;52812;48.960;9.108;2023-09-19T14:16:53;21.70;99.90
3086;DHT22;52812;48.960;9.108;2023-09-19T14:19:20;21.70;99.90
3086;DHT22;52812;48.960;9.108;2023-09-19T14:21:46;21.60;99.90
3086;DHT22;52812;48.960;9.108;2023-09-19T14:24:16;21.60;99.90
3086;DHT22;52812;48.960;9.108;2023-09-19T14:26:43;21.60;99.90
3086;DHT22;52812;48.960;9.108;2023-09-19T14:29:09;21.60;99.90
3086;DHT22;52812;48.960;9.108;2023-09-19T14:31:38;21.60;99.90
3086;DHT22;52812;48.960;9.108;2023-09-19T14:34:05;21.70;99.90
3086;DHT22;52812;48.960;9.108;2023-09-19T14:36:31;21.70;99.90
3086;DHT22;52812;48.960;9.108;2023-09-19T14:38:58;21.70;99.90
3086;DHT22;52812;48.960;9.108;2023-09-19T14:41:24;21.70;99.90
3086;DHT22;52812;48.960;9.108;2023-09-19T14:43:54;21.70;99.90
3086;DHT22;52812;48.960;9.108;2023-09-19T14:46:21;21.80;99.90
3086;DHT22;52812;48.960;9.108;2023-09-19T14:48:47;21.80;99.90
3086;DHT22;52812;48.960;9.108;2023-09-19T14:51:13;21.90;99.90
3086;DHT22;52812;48.960;9.108;2023-09-19T14:53:39;21.90;99.90
3086;DHT22;52812;48.960;9.108;2023-09-19T14:56:08;21.90;99.90
3086;DHT22;52812;48.960;9.108;2023-09-19T14:58:34;21.90;99.90
3086;DHT22;52812;48.960;9.108;2023-09-19T15:01:09;21.90;99.90
3086;DHT22;52812;48.960;9.108;2023-09-19T15:03:39;21.90;99.90
3086;DHT22;52812;48.960;9.108;2023-09-19T15:06:12;21.90;99.90
3086;DHT22;52812;48.960;9.108;2023-09-19T15:08:40;21.90;99.90
3086;DHT22;52812;48.960;9.108;2023-09-19T15:11:09;21.90;99.90
3086;DHT22;52812;48.960;9.108;2023-09-19T15:13:36;21.90;99.90
3086;DHT22;52812;48.960;9.108;2023-09-19T15:16:03;21.90;99.90
3086;DHT22;52812;48.960;9.108;2023-09-19T15:18:29;21.80;99.90
3086;DHT22;52812;48.960;9.108;2023-09-19T15:21:05;21.80;99.90
3086;DHT22;52812;48.960;9.108;2023-09-19T15:23:31;21.90;99.90
3086;DHT22;52812;48.960;9.108;2023-09-19T15:26:03;21.90;99.90
3086;DHT22;52812;48.960;9.108;2023-09-19T15:28:29;21.90;99.90
3086;DHT22;52812;48.960;9.108;2023-09-19T15:31:09;21.80;99.90
3086;DHT22;52812;48.960;9.108;2023-09-19T15:33:35;21.80;99.90
3086;DHT22;52812;48.960;9.108;2023-09-19T15:38:29;21.70;99.90
3086;DHT22;52812;48.960;9.108;2023-09-19T15:40:55;21.70;99.90
3086;DHT22;52812;48.960;9.108;2023-09-19T15:43:21;21.70;99.90
3086;DHT22;52812;48.960;9.108;2023-09-19T15:45:50;21.60;99.90
3086;DHT22;52812;48.960;9.108;2023-09-19T15:48:16;21.50;99.90
3086;DHT22;52812;48.960;9.108;2023-09-19T15:50:42;21.40;99.90
3086;DHT22;52812;48.960;9.108;2023-09-19T15:53:10;21.30;99.90
3086;DHT22;52812;48.960;9.108;2023-09-19T15:55:41;21.20;99.90
3086;DHT22;52812;48.960;9.108;2023-09-19T15:58:07;21.20;99.90
3086;DHT22;52812;48.960;9.108;2023-09-19T16:00:33;21.20;99.90
3086;DHT22;52812;48.960;9.108;2023-09-19T16:03:02;21.10;99.90
3086;DHT22;52812;48.960;9.108;2023-09-19T16:05:34;21.10;99.90
3086;DHT22;52812;48.960;9.108;2023-09-19T16:08:03;21.10;99.90
3086;DHT22;52812;48.960;9.108;2023-09-19T16:10:29;21.00;99.90
3086;DHT22;52812;48.960;9.108;2023-09-19T16:12:55;21.00;99.90
3086;DHT22;52812;48.960;9.108;2023-09-19T16:15:20;21.00;99.90
3086;DHT22;52812;48.960;9.108;2023-09-19T16:17:46;20.90;99.90
3086;DHT22;52812;48.960;9.108;2023-09-19T16:20:12;20.90;99.90
3086;DHT22;52812;48.960;9.108;2023-09-19T16:22:39;20.90;99.90
3086;DHT22;52812;48.960;9.108;2023-09-19T16:25:06;20.80;99.90
3086;DHT22;52812;48.960;9.108;2023-09-19T16:27:31;20.80;99.90
3086;DHT22;52812;48.960;9.108;2023-09-19T16:29:57;20.70;99.90
3086;DHT22;52812;48.960;9.108;2023-09-19T16:32:23;20.70;99.90
3086;DHT22;52812;48.960;9.108;2023-09-19T16:34:48;20.60;99.90
3086;DHT22;52812;48.960;9.108;2023-09-19T16:37:14;20.60;99.90
3086;DHT22;52812;48.960;9.108;2023-09-19T16:39:40;20.60;99.90
3086;DHT22;52812;48.960;9.108;2023-09-19T16:42:06;20.60;99.90
3086;DHT22;52812;48.960;9.108;2023-09-19T16:44:33;20.40;99.90
3086;DHT22;52812;48.960;9.108;2023-09-19T16:46:59;20.40;99.90